sensor_id;sensor_type;location;lat;lon;timestamp;temperature;humidity
71994;DHT22;59861;50.268;8.648;2023-01-08T00:00:48;17.40;60.30
71994;DHT22;59861;50.268;8.648;2023-01-08T00:03:15;17.40;60.20
71994;DHT22;59861;50.268;8.648;2023-01-08T00:05:41;17.40;60.10
71994;DHT22;59861;50.268;8.648;2023-01-08T00:08:09;17.30;60.10
71994;DHT22;59861;50.268;8.648;2023-01-08T00:10:36;17.40;60.20
71994;DHT22;59861;50.268;8.648;2023-01-08T00:13:04;17.30;60.10
71994;DHT22;59861;50.268;8.648;2023-01-08T00:15:34;17.40;60.20
71994;DHT22;59861;50.268;8.648;2023-01-08T00:18:01;17.40;60.10
71994;DHT22;59861;50.268;8.648;2023-01-08T00:20:29;17.40;59.90
71994;DHT22;59861;50.268;8.648;2023-01-08T00:22:56;17.40;60.00
71994;DHT22;59861;50.268;8.648;2023-01-08T00:25:22;17.30;59.90
71994;DHT22;59861;50.268;8.648;2023-01-08T00:27:49;17.30;59.70
71994;DHT22;59861;50.268;8.648;2023-01-08T00:30:16;17.40;59.70
71994;DHT22;59861;50.268;8.648;2023-01-08T00:32:43;17.30;59.70
71994;DHT22;59861;50.268;8.648;2023-01-08T00:35:10;17.30;59.70
71994;DHT22;59861;50.268;8.648;2023-01-08T00:37:36;17.30;59.70
71994;DHT22;59861;50.268;8.648;2023-01-08T00:40:03;17.30;59.60
71994;DHT22;59861;50.268;8.648;2023-01-08T00:42:30;17.30;59.60
71994;DHT22;59861;50.268;8.648;2023-01-08T00:44:57;17.30;59.60
71994;DHT22;59861;50.268;8.648;2023-01-08T00:47:24;17.30;59.60
71994;DHT22;59861;50.268;8.648;2023-01-08T00:49:51;17.30;59.50
71994;DHT22;59861;50.268;8.648;2023-01-08T00:52:18;17.30;59.50
71994;DHT22;59861;50.268;8.648;2023-01-08T00:54:44;17.20;59.50
71994;DHT22;59861;50.268;8.648;2023-01-08T00:57:11;17.30;59.40
71994;DHT22;59861;50.268;8.648;2023-01-08T00:59:38;17.30;59.40
71994;DHT22;59861;50.268;8.648;2023-01-08T01:02:05;17.30;59.30
71994;DHT22;59861;50.268;8.648;2023-01-08T01:04:36;17.30;59.30
71994;DHT22;59861;50.268;8.648;2023-01-08T01:07:00;17.30;59.20
71994;DHT22;59861;50.268;8.648;2023-01-08T01:09:28;17.30;59.20
71994;DHT22;59861;50.268;8.648;2023-01-08T01:11:55;17.30;59.30
71994;DHT22;59861;50.268;8.648;2023-01-08T01:14:22;17.30;59.20
71994;DHT22;59861;50.268;8.648;2023-01-08T01:16:49;17.20;59.70
71994;DHT22;59861;50.268;8.648;2023-01-08T01:19:16;17.30;59.10
71994;DHT22;59861;50.268;8.648;2023-01-08T01:21:43;17.30;59.20
71994;DHT22;59861;50.268;8.648;2023-01-08T01:24:10;17.20;59.10
71994;DHT22;59861;50.268;8.648;2023-01-08T01:26:38;17.20;59.00
71994;DHT22;59861;50.268;8.648;2023-01-08T01:29:05;17.30;59.00
71994;DHT22;59861;50.268;8.648;2023-01-08T01:31:32;17.20;59.00
71994;DHT22;59861;50.268;8.648;2023-01-08T01:33:58;17.30;59.00
71994;DHT22;59861;50.268;8.648;2023-01-08T01:36:25;17.20;58.90
71994;DHT22;59861;50.268;8.648;2023-01-08T01:38:54;17.20;59.00
71994;DHT22;59861;50.268;8.648;2023-01-08T01:41:37;17.20;58.90
71994;DHT22;59861;50.268;8.648;2023-01-08T01:46:49;17.20;59.00
71994;DHT22;59861;50.268;8.648;2023-01-08T01:49:19;17.20;58.90
71994;DHT22;59861;50.268;8.648;2023-01-08T01:51:48;17.20;58.90
71994;DHT22;59861;50.268;8.648;2023-01-08T01:54:15;17.20;58.90
71994;DHT22;59861;50.268;8.648;2023-01-08T01:56:43;17.20;58.90
71994;DHT22;59861;50.268;8.648;2023-01-08T01:59:11;17.20;58.90
71994;DHT22;59861;50.268;8.648;2023-01-08T02:01:39;17.20;59.00
71994;DHT22;59861;50.268;8.648;2023-01-08T02:04:10;17.10;58.90
71994;DHT22;59861;50.268;8.648;2023-01-08T02:06:40;17.10;58.90
71994;DHT22;59861;50.268;8.648;2023-01-08T02:14:41;17.10;58.90
71994;DHT22;59861;50.268;8.648;2023-01-08T02:17:09;17.10;58.90
71994;DHT22;59861;50.268;8.648;2023-01-08T02:19:47;17.10;58.90
71994;DHT22;59861;50.268;8.648;2023-01-08T02:25:00;17.10;59.00
71994;DHT22;59861;50.268;8.648;2023-01-08T02:27:24;17.00;58.90
71994;DHT22;59861;50.268;8.648;2023-01-08T02:29:52;17.00;58.90
71994;DHT22;59861;50.268;8.648;2023-01-08T02:32:21;17.10;59.00
71994;DHT22;59861;50.268;8.648;2023-01-08T02:34:50;17.10;59.00
71994;DHT22;59861;50.268;8.648;2023-01-08T02:37:17;17.00;58.90
71994;DHT22;59861;50.268;8.648;2023-01-08T02:39:45;17.00;58.90
71994;DHT22;59861;50.268;8.648;2023-01-08T02:44:54;17.00;59.80
71994;DHT22;59861;50.268;8.648;2023-01-08T02:47:27;17.00;59.00
71994;DHT22;59861;50.268;8.648;2023-01-08T02:49:51;17.00;59.00
71994;DHT22;59861;50.268;8.648;2023-01-08T02:52:18;17.00;59.00
71994;DHT22;59861;50.268;8.648;2023-01-08T02:54:45;17.00;59.00
71994;DHT22;59861;50.268;8.648;2023-01-08T02:57:13;16.90;59.00
71994;DHT22;59861;50.268;8.648;2023-01-08T02:59:41;17.00;59.70
71994;DHT22;59861;50.268;8.648;2023-01-08T03:02:08;16.90;59.00
71994;DHT22;59861;50.268;8.648;2023-01-08T03:04:38;16.90;59.00
71994;DHT22;59861;50.268;8.648;2023-01-08T03:07:04;16.90;59.10
71994;DHT22;59861;50.268;8.648;2023-01-08T03:09:31;16.90;59.00
71994;DHT22;59861;50.268;8.648;2023-01-08T03:12:01;16.90;59.00
71994;DHT22;59861;50.268;8.648;2023-01-08T03:14:40;16.90;59.00
71994;DHT22;59861;50.268;8.648;2023-01-08T03:17:10;16.90;59.00
71994;DHT22;59861;50.268;8.648;2023-01-08T03:19:49;16.90;59.10
71994;DHT22;59861;50.268;8.648;2023-01-08T03:22:13;16.90;59.00
71994;DHT22;59861;50.268;8.648;2023-01-08T03:24:43;16.90;59.10
71994;DHT22;59861;50.268;8.648;2023-01-08T03:27:12;16.90;59.00
71994;DHT22;59861;50.268;8.648;2023-01-08T03:29:40;16.80;59.00
71994;DHT22;59861;50.268;8.648;2023-01-08T03:32:13;16.80;59.00
71994;DHT22;59861;50.268;8.648;2023-01-08T03:34:35;16.80;59.00
71994;DHT22;59861;50.268;8.648;2023-01-08T03:37:04;16.80;59.00
71994;DHT22;59861;50.268;8.648;2023-01-08T03:42:05;16.80;59.10
71994;DHT22;59861;50.268;8.648;2023-01-08T03:44:32;16.80;59.10
71994;DHT22;59861;50.268;8.648;2023-01-08T03:46:59;16.80;59.10
71994;DHT22;59861;50.268;8.648;2023-01-08T03:49:26;16.80;59.00
71994;DHT22;59861;50.268;8.648;2023-01-08T03:51:56;16.80;59.10
71994;DHT22;59861;50.268;8.648;2023-01-08T03:54:23;16.80;59.00
71994;DHT22;59861;50.268;8.648;2023-01-08T03:56:53;16.80;59.10
71994;DHT22;59861;50.268;8.648;2023-01-08T03:59:19;16.80;59.00
71994;DHT22;59861;50.268;8.648;2023-01-08T04:01:46;16.80;59.00
71994;DHT22;59861;50.268;8.648;2023-01-08T04:04:12;16.70;59.00
71994;DHT22;59861;50.268;8.648;2023-01-08T04:06:39;16.70;59.00
71994;DHT22;59861;50.268;8.648;2023-01-08T04:09:06;16.70;59.00
71994;DHT22;59861;50.268;8.648;2023-01-08T04:11:33;16.70;59.00
71994;DHT22;59861;50.268;8.648;2023-01-08T04:14:00;16.70;59.00
71994;DHT22;59861;50.268;8.648;2023-01-08T04:16:27;16.70;59.00
71994;DHT22;59861;50.268;8.648;2023-01-08T04:18:54;16.70;59.10
71994;DHT22;59861;50.268;8.648;2023-01-08T04:21:21;16.70;59.00
71994;DHT22;59861;50.268;8.648;2023-01-08T04:23:47;16.70;59.10
71994;DHT22;59861;50.268;8.648;2023-01-08T04:26:14;16.70;59.00
71994;DHT22;59861;50.268;8.648;2023-01-08T04:28:41;16.70;59.00
71994;DHT22;59861;50.268;8.648;2023-01-08T04:31:08;16.70;59.00
71994;DHT22;59861;50.268;8.648;2023-01-08T04:33:35;16.70;59.00
71994;DHT22;59861;50.268;8.648;2023-01-08T04:36:04;16.70;59.10
71994;DHT22;59861;50.268;8.648;2023-01-08T04:38:35;16.70;59.10
71994;DHT22;59861;50.268;8.648;2023-01-08T04:40:59;16.60;59.00
71994;DHT22;59861;50.268;8.648;2023-01-08T04:43:27;16.60;59.10
71994;DHT22;59861;50.268;8.648;2023-01-08T04:46:05;16.60;59.00
71994;DHT22;59861;50.268;8.648;2023-01-08T04:48:28;16.60;59.00
71994;DHT22;59861;50.268;8.648;2023-01-08T04:50:59;16.60;59.10
71994;DHT22;59861;50.268;8.648;2023-01-08T04:53:26;16.60;59.10
71994;DHT22;59861;50.268;8.648;2023-01-08T04:55:53;16.60;59.10
71994;DHT22;59861;50.268;8.648;2023-01-08T04:58:23;16.60;59.10
71994;DHT22;59861;50.268;8.648;2023-01-08T05:00:48;16.60;59.10
71994;DHT22;59861;50.268;8.648;2023-01-08T05:03:15;16.60;59.20
71994;DHT22;59861;50.268;8.648;2023-01-08T05:05:47;16.60;59.10
71994;DHT22;59861;50.268;8.648;2023-01-08T05:08:10;16.60;59.10
71994;DHT22;59861;50.268;8.648;2023-01-08T05:10:37;16.60;59.80
71994;DHT22;59861;50.268;8.648;2023-01-08T05:13:04;16.60;59.10
71994;DHT22;59861;50.268;8.648;2023-01-08T05:15:31;16.60;59.10
71994;DHT22;59861;50.268;8.648;2023-01-08T05:18:05;16.60;59.10
71994;DHT22;59861;50.268;8.648;2023-01-08T05:20:29;16.50;59.10
71994;DHT22;59861;50.268;8.648;2023-01-08T05:22:57;16.60;59.50
71994;DHT22;59861;50.268;8.648;2023-01-08T05:25:24;16.60;59.10
71994;DHT22;59861;50.268;8.648;2023-01-08T05:27:51;16.50;59.00
71994;DHT22;59861;50.268;8.648;2023-01-08T05:30:18;16.50;59.00
71994;DHT22;59861;50.268;8.648;2023-01-08T05:32:45;16.50;59.00
71994;DHT22;59861;50.268;8.648;2023-01-08T05:35:16;16.50;59.00
71994;DHT22;59861;50.268;8.648;2023-01-08T05:37:40;16.50;59.00
71994;DHT22;59861;50.268;8.648;2023-01-08T05:40:10;16.50;59.00
71994;DHT22;59861;50.268;8.648;2023-01-08T05:42:37;16.50;59.10
71994;DHT22;59861;50.268;8.648;2023-01-08T05:45:06;16.50;59.10
71994;DHT22;59861;50.268;8.648;2023-01-08T05:47:33;16.50;59.00
71994;DHT22;59861;50.268;8.648;2023-01-08T05:50:00;16.50;59.10
71994;DHT22;59861;50.268;8.648;2023-01-08T05:52:27;16.50;59.00
71994;DHT22;59861;50.268;8.648;2023-01-08T05:54:54;16.50;59.00
71994;DHT22;59861;50.268;8.648;2023-01-08T06:00:08;16.50;59.00
71994;DHT22;59861;50.268;8.648;2023-01-08T06:02:35;16.50;59.00
71994;DHT22;59861;50.268;8.648;2023-01-08T06:05:02;16.50;59.00
71994;DHT22;59861;50.268;8.648;2023-01-08T06:07:29;16.50;59.00
71994;DHT22;59861;50.268;8.648;2023-01-08T06:09:56;16.50;59.00
71994;DHT22;59861;50.268;8.648;2023-01-08T06:12:22;16.50;59.00
71994;DHT22;59861;50.268;8.648;2023-01-08T06:14:49;16.50;59.00
71994;DHT22;59861;50.268;8.648;2023-01-08T06:17:16;16.50;59.00
71994;DHT22;59861;50.268;8.648;2023-01-08T06:19:43;16.50;59.00
71994;DHT22;59861;50.268;8.648;2023-01-08T06:22:11;16.50;59.00
71994;DHT22;59861;50.268;8.648;2023-01-08T06:24:38;16.50;59.00
71994;DHT22;59861;50.268;8.648;2023-01-08T06:27:05;16.50;59.00
71994;DHT22;59861;50.268;8.648;2023-01-08T06:29:32;16.50;59.00
71994;DHT22;59861;50.268;8.648;2023-01-08T06:31:58;16.50;59.00
71994;DHT22;59861;50.268;8.648;2023-01-08T06:34:25;16.50;59.00
71994;DHT22;59861;50.268;8.648;2023-01-08T06:36:52;16.50;59.00
71994;DHT22;59861;50.268;8.648;2023-01-08T06:39:19;16.50;59.00
71994;DHT22;59861;50.268;8.648;2023-01-08T06:41:46;16.50;59.00
71994;DHT22;59861;50.268;8.648;2023-01-08T06:44:12;16.50;59.10
71994;DHT22;59861;50.268;8.648;2023-01-08T06:46:39;16.50;59.10
71994;DHT22;59861;50.268;8.648;2023-01-08T06:49:06;16.40;59.10
71994;DHT22;59861;50.268;8.648;2023-01-08T06:51:33;16.40;59.30
71994;DHT22;59861;50.268;8.648;2023-01-08T06:54:00;16.40;59.40
71994;DHT22;59861;50.268;8.648;2023-01-08T06:56:27;16.40;59.50
71994;DHT22;59861;50.268;8.648;2023-01-08T06:58:54;16.40;59.50
71994;DHT22;59861;50.268;8.648;2023-01-08T07:01:21;16.40;59.40
71994;DHT22;59861;50.268;8.648;2023-01-08T07:03:48;16.40;59.60
71994;DHT22;59861;50.268;8.648;2023-01-08T07:06:15;16.40;59.60
71994;DHT22;59861;50.268;8.648;2023-01-08T07:08:42;16.40;59.60
71994;DHT22;59861;50.268;8.648;2023-01-08T07:11:09;16.50;59.70
71994;DHT22;59861;50.268;8.648;2023-01-08T07:13:36;16.50;59.60
71994;DHT22;59861;50.268;8.648;2023-01-08T07:16:06;16.50;59.60
71994;DHT22;59861;50.268;8.648;2023-01-08T07:18:33;16.50;59.60
71994;DHT22;59861;50.268;8.648;2023-01-08T07:21:01;16.50;59.70
71994;DHT22;59861;50.268;8.648;2023-01-08T07:23:28;16.50;59.60
71994;DHT22;59861;50.268;8.648;2023-01-08T07:25:58;16.50;59.60
71994;DHT22;59861;50.268;8.648;2023-01-08T07:28:23;16.50;59.60
71994;DHT22;59861;50.268;8.648;2023-01-08T07:30:50;16.50;59.60
71994;DHT22;59861;50.268;8.648;2023-01-08T07:33:17;16.50;59.60
71994;DHT22;59861;50.268;8.648;2023-01-08T07:35:50;16.50;59.60
71994;DHT22;59861;50.268;8.648;2023-01-08T07:38:12;16.60;59.70
71994;DHT22;59861;50.268;8.648;2023-01-08T07:40:39;16.60;59.60
71994;DHT22;59861;50.268;8.648;2023-01-08T07:43:07;16.60;59.70
71994;DHT22;59861;50.268;8.648;2023-01-08T07:45:36;16.60;59.60
71994;DHT22;59861;50.268;8.648;2023-01-08T07:48:03;16.60;59.50
71994;DHT22;59861;50.268;8.648;2023-01-08T07:50:30;16.60;59.60
71994;DHT22;59861;50.268;8.648;2023-01-08T07:52:58;16.60;59.80
71994;DHT22;59861;50.268;8.648;2023-01-08T07:55:25;16.60;59.60
71994;DHT22;59861;50.268;8.648;2023-01-08T07:57:52;16.60;59.60
71994;DHT22;59861;50.268;8.648;2023-01-08T08:00:19;16.60;59.60
71994;DHT22;59861;50.268;8.648;2023-01-08T08:02:47;16.60;59.50
71994;DHT22;59861;50.268;8.648;2023-01-08T08:05:14;16.70;59.60
71994;DHT22;59861;50.268;8.648;2023-01-08T08:07:42;16.70;59.60
71994;DHT22;59861;50.268;8.648;2023-01-08T08:10:09;16.70;59.60
71994;DHT22;59861;50.268;8.648;2023-01-08T08:12:36;16.70;60.30
71994;DHT22;59861;50.268;8.648;2023-01-08T08:15:03;16.70;59.60
71994;DHT22;59861;50.268;8.648;2023-01-08T08:17:30;16.70;59.60
71994;DHT22;59861;50.268;8.648;2023-01-08T08:19:57;16.70;59.50
71994;DHT22;59861;50.268;8.648;2023-01-08T08:22:24;16.70;59.60
71994;DHT22;59861;50.268;8.648;2023-01-08T08:24:51;16.70;59.50
71994;DHT22;59861;50.268;8.648;2023-01-08T08:27:18;16.70;59.50
71994;DHT22;59861;50.268;8.648;2023-01-08T08:29:45;16.70;59.50
71994;DHT22;59861;50.268;8.648;2023-01-08T08:32:11;16.70;59.50
71994;DHT22;59861;50.268;8.648;2023-01-08T08:34:38;16.70;59.60
71994;DHT22;59861;50.268;8.648;2023-01-08T08:37:05;16.70;59.60
71994;DHT22;59861;50.268;8.648;2023-01-08T08:39:32;16.70;59.50
71994;DHT22;59861;50.268;8.648;2023-01-08T08:41:59;16.70;59.60
71994;DHT22;59861;50.268;8.648;2023-01-08T08:44:26;16.70;59.50
71994;DHT22;59861;50.268;8.648;2023-01-08T08:46:52;16.70;59.60
71994;DHT22;59861;50.268;8.648;2023-01-08T08:49:19;16.70;59.60
71994;DHT22;59861;50.268;8.648;2023-01-08T08:51:46;16.70;59.60
71994;DHT22;59861;50.268;8.648;2023-01-08T08:54:13;16.70;59.50
71994;DHT22;59861;50.268;8.648;2023-01-08T08:56:39;16.70;59.70
71994;DHT22;59861;50.268;8.648;2023-01-08T08:59:06;15.60;57.60
71994;DHT22;59861;50.268;8.648;2023-01-08T09:01:34;14.90;59.80
71994;DHT22;59861;50.268;8.648;2023-01-08T09:04:00;14.20;62.30
71994;DHT22;59861;50.268;8.648;2023-01-08T09:06:27;13.90;64.30
71994;DHT22;59861;50.268;8.648;2023-01-08T09:08:54;14.00;65.60
71994;DHT22;59861;50.268;8.648;2023-01-08T09:11:21;14.60;65.10
71994;DHT22;59861;50.268;8.648;2023-01-08T09:13:48;15.00;64.10
71994;DHT22;59861;50.268;8.648;2023-01-08T09:16:14;15.40;63.20
71994;DHT22;59861;50.268;8.648;2023-01-08T09:18:41;15.60;62.40
71994;DHT22;59861;50.268;8.648;2023-01-08T09:21:09;15.80;61.60
71994;DHT22;59861;50.268;8.648;2023-01-08T09:23:36;16.00;61.40
71994;DHT22;59861;50.268;8.648;2023-01-08T09:26:03;16.00;61.50
71994;DHT22;59861;50.268;8.648;2023-01-08T09:28:31;16.20;61.90
71994;DHT22;59861;50.268;8.648;2023-01-08T09:31:01;16.30;61.80
71994;DHT22;59861;50.268;8.648;2023-01-08T09:33:28;16.40;62.20
71994;DHT22;59861;50.268;8.648;2023-01-08T09:35:55;16.50;62.40
71994;DHT22;59861;50.268;8.648;2023-01-08T09:38:22;16.50;62.30
71994;DHT22;59861;50.268;8.648;2023-01-08T09:41:03;16.60;62.50
71994;DHT22;59861;50.268;8.648;2023-01-08T09:43:30;16.70;62.50
71994;DHT22;59861;50.268;8.648;2023-01-08T09:45:58;16.70;62.50
71994;DHT22;59861;50.268;8.648;2023-01-08T09:48:30;16.80;62.70
71994;DHT22;59861;50.268;8.648;2023-01-08T09:50:57;16.80;63.40
71994;DHT22;59861;50.268;8.648;2023-01-08T09:53:24;16.70;62.30
71994;DHT22;59861;50.268;8.648;2023-01-08T09:55:57;16.70;62.70
71994;DHT22;59861;50.268;8.648;2023-01-08T10:00:51;16.80;63.30
71994;DHT22;59861;50.268;8.648;2023-01-08T10:03:18;16.80;63.40
71994;DHT22;59861;50.268;8.648;2023-01-08T10:05:45;16.80;63.30
71994;DHT22;59861;50.268;8.648;2023-01-08T10:08:13;16.90;63.80
71994;DHT22;59861;50.268;8.648;2023-01-08T10:10:40;16.90;63.80
71994;DHT22;59861;50.268;8.648;2023-01-08T10:13:08;16.90;64.00
71994;DHT22;59861;50.268;8.648;2023-01-08T10:15:35;17.00;63.50
71994;DHT22;59861;50.268;8.648;2023-01-08T10:18:03;16.90;63.80
71994;DHT22;59861;50.268;8.648;2023-01-08T10:20:31;16.90;64.20
71994;DHT22;59861;50.268;8.648;2023-01-08T10:23:08;16.90;64.50
71994;DHT22;59861;50.268;8.648;2023-01-08T10:25:46;16.90;64.60
71994;DHT22;59861;50.268;8.648;2023-01-08T10:28:04;16.90;64.70
71994;DHT22;59861;50.268;8.648;2023-01-08T10:30:34;16.90;64.90
71994;DHT22;59861;50.268;8.648;2023-01-08T10:33:03;16.90;64.90
71994;DHT22;59861;50.268;8.648;2023-01-08T10:35:37;16.90;65.00
71994;DHT22;59861;50.268;8.648;2023-01-08T10:38:04;16.90;65.20
71994;DHT22;59861;50.268;8.648;2023-01-08T10:40:44;16.90;65.20
71994;DHT22;59861;50.268;8.648;2023-01-08T10:45:43;16.80;64.40
71994;DHT22;59861;50.268;8.648;2023-01-08T10:48:16;16.70;63.80
71994;DHT22;59861;50.268;8.648;2023-01-08T10:50:40;16.80;64.00
71994;DHT22;59861;50.268;8.648;2023-01-08T10:53:20;16.90;64.00
71994;DHT22;59861;50.268;8.648;2023-01-08T10:55:35;16.90;63.80
71994;DHT22;59861;50.268;8.648;2023-01-08T10:58:04;17.00;64.00
71994;DHT22;59861;50.268;8.648;2023-01-08T11:00:32;17.00;63.80
71994;DHT22;59861;50.268;8.648;2023-01-08T11:03:00;17.10;63.70
71994;DHT22;59861;50.268;8.648;2023-01-08T11:05:34;17.10;63.60
71994;DHT22;59861;50.268;8.648;2023-01-08T11:08:02;17.10;64.80
71994;DHT22;59861;50.268;8.648;2023-01-08T11:10:30;17.20;63.80
71994;DHT22;59861;50.268;8.648;2023-01-08T11:12:59;17.20;63.80
71994;DHT22;59861;50.268;8.648;2023-01-08T11:15:40;17.30;63.60
71994;DHT22;59861;50.268;8.648;2023-01-08T11:18:25;17.30;63.80
71994;DHT22;59861;50.268;8.648;2023-01-08T11:20:32;17.30;64.00
71994;DHT22;59861;50.268;8.648;2023-01-08T11:23:03;17.30;64.20
71994;DHT22;59861;50.268;8.648;2023-01-08T11:25:30;17.30;64.40
71994;DHT22;59861;50.268;8.648;2023-01-08T11:27:57;17.30;64.50
71994;DHT22;59861;50.268;8.648;2023-01-08T11:30:24;17.30;64.50
71994;DHT22;59861;50.268;8.648;2023-01-08T11:38:02;17.30;64.80
71994;DHT22;59861;50.268;8.648;2023-01-08T11:40:32;17.40;64.90
71994;DHT22;59861;50.268;8.648;2023-01-08T11:43:05;17.40;64.80
71994;DHT22;59861;50.268;8.648;2023-01-08T11:48:38;17.30;64.70
71994;DHT22;59861;50.268;8.648;2023-01-08T11:50:59;17.30;64.80
71994;DHT22;59861;50.268;8.648;2023-01-08T12:03:53;17.50;64.50
71994;DHT22;59861;50.268;8.648;2023-01-08T12:06:27;16.40;57.10
71994;DHT22;59861;50.268;8.648;2023-01-08T12:09:06;15.40;62.00
71994;DHT22;59861;50.268;8.648;2023-01-08T12:11:30;15.90;66.20
71994;DHT22;59861;50.268;8.648;2023-01-08T12:14:08;16.60;64.30
71994;DHT22;59861;50.268;8.648;2023-01-08T12:19:09;17.20;62.10
71994;DHT22;59861;50.268;8.648;2023-01-08T12:21:47;17.40;61.90
71994;DHT22;59861;50.268;8.648;2023-01-08T12:24:13;17.40;61.90
71994;DHT22;59861;50.268;8.648;2023-01-08T12:29:27;17.30;61.70
71994;DHT22;59861;50.268;8.648;2023-01-08T12:32:02;17.20;62.00
71994;DHT22;59861;50.268;8.648;2023-01-08T12:36:57;17.30;62.50
71994;DHT22;59861;50.268;8.648;2023-01-08T12:39:26;17.40;62.60
71994;DHT22;59861;50.268;8.648;2023-01-08T12:41:55;17.40;62.80
71994;DHT22;59861;50.268;8.648;2023-01-08T12:44:22;17.40;62.70
71994;DHT22;59861;50.268;8.648;2023-01-08T12:46:50;17.40;63.10
71994;DHT22;59861;50.268;8.648;2023-01-08T12:49:23;17.40;62.90
71994;DHT22;59861;50.268;8.648;2023-01-08T12:51:55;17.40;63.00
71994;DHT22;59861;50.268;8.648;2023-01-08T12:54:38;17.40;63.00
71994;DHT22;59861;50.268;8.648;2023-01-08T12:57:13;17.40;63.10
71994;DHT22;59861;50.268;8.648;2023-01-08T12:59:53;17.40;63.10
71994;DHT22;59861;50.268;8.648;2023-01-08T13:04:51;17.50;63.40
71994;DHT22;59861;50.268;8.648;2023-01-08T13:07:25;17.60;63.50
71994;DHT22;59861;50.268;8.648;2023-01-08T13:09:53;17.60;63.20
71994;DHT22;59861;50.268;8.648;2023-01-08T13:12:23;17.70;63.40
71994;DHT22;59861;50.268;8.648;2023-01-08T13:14:48;17.80;63.50
71994;DHT22;59861;50.268;8.648;2023-01-08T13:17:17;17.70;63.70
71994;DHT22;59861;50.268;8.648;2023-01-08T13:19:50;17.60;63.30
71994;DHT22;59861;50.268;8.648;2023-01-08T13:22:22;17.50;62.30
71994;DHT22;59861;50.268;8.648;2023-01-08T13:24:49;17.50;62.50
71994;DHT22;59861;50.268;8.648;2023-01-08T13:29:50;17.40;62.40
71994;DHT22;59861;50.268;8.648;2023-01-08T13:32:33;17.30;62.40
71994;DHT22;59861;50.268;8.648;2023-01-08T13:35:00;17.30;62.40
71994;DHT22;59861;50.268;8.648;2023-01-08T13:37:27;17.30;62.30
71994;DHT22;59861;50.268;8.648;2023-01-08T13:39:54;17.30;63.20
71994;DHT22;59861;50.268;8.648;2023-01-08T13:42:24;17.30;62.40
71994;DHT22;59861;50.268;8.648;2023-01-08T13:44:58;17.20;62.20
71994;DHT22;59861;50.268;8.648;2023-01-08T13:49:54;17.20;62.10
71994;DHT22;59861;50.268;8.648;2023-01-08T13:52:29;17.20;62.10
71994;DHT22;59861;50.268;8.648;2023-01-08T13:54:55;17.20;62.70
71994;DHT22;59861;50.268;8.648;2023-01-08T13:57:22;17.30;62.30
71994;DHT22;59861;50.268;8.648;2023-01-08T13:59:55;17.20;62.30
71994;DHT22;59861;50.268;8.648;2023-01-08T14:02:25;17.20;62.30
71994;DHT22;59861;50.268;8.648;2023-01-08T14:04:52;17.20;62.30
71994;DHT22;59861;50.268;8.648;2023-01-08T14:07:20;17.20;62.30
71994;DHT22;59861;50.268;8.648;2023-01-08T14:09:48;17.20;62.40
71994;DHT22;59861;50.268;8.648;2023-01-08T14:12:20;17.20;62.50
71994;DHT22;59861;50.268;8.648;2023-01-08T14:14:49;17.20;62.40
71994;DHT22;59861;50.268;8.648;2023-01-08T14:17:16;17.40;62.80
71994;DHT22;59861;50.268;8.648;2023-01-08T14:19:43;17.30;62.00
71994;DHT22;59861;50.268;8.648;2023-01-08T14:22:18;17.30;62.10
71994;DHT22;59861;50.268;8.648;2023-01-08T14:24:47;17.20;62.20
71994;DHT22;59861;50.268;8.648;2023-01-08T14:27:20;17.40;63.30
71994;DHT22;59861;50.268;8.648;2023-01-08T14:29:48;17.50;62.40
71994;DHT22;59861;50.268;8.648;2023-01-08T14:32:16;17.70;62.30
71994;DHT22;59861;50.268;8.648;2023-01-08T14:34:43;17.70;62.40
71994;DHT22;59861;50.268;8.648;2023-01-08T14:37:15;17.80;62.60
71994;DHT22;59861;50.268;8.648;2023-01-08T14:39:39;17.90;62.90
71994;DHT22;59861;50.268;8.648;2023-01-08T14:44:53;18.00;63.10
71994;DHT22;59861;50.268;8.648;2023-01-08T14:47:20;18.00;63.50
71994;DHT22;59861;50.268;8.648;2023-01-08T14:49:49;18.00;63.50
71994;DHT22;59861;50.268;8.648;2023-01-08T14:52:17;18.10;63.80
71994;DHT22;59861;50.268;8.648;2023-01-08T14:54:46;18.10;64.20
71994;DHT22;59861;50.268;8.648;2023-01-08T14:57:14;18.10;64.30
71994;DHT22;59861;50.268;8.648;2023-01-08T14:59:42;18.10;64.70
71994;DHT22;59861;50.268;8.648;2023-01-08T15:02:20;18.10;65.00
71994;DHT22;59861;50.268;8.648;2023-01-08T15:04:39;18.10;65.90
71994;DHT22;59861;50.268;8.648;2023-01-08T15:07:07;18.10;65.30
71994;DHT22;59861;50.268;8.648;2023-01-08T15:09:34;18.10;65.40
71994;DHT22;59861;50.268;8.648;2023-01-08T15:12:03;18.10;65.50
71994;DHT22;59861;50.268;8.648;2023-01-08T15:14:30;18.20;65.80
71994;DHT22;59861;50.268;8.648;2023-01-08T15:17:04;18.20;66.00
71994;DHT22;59861;50.268;8.648;2023-01-08T15:19:28;18.20;66.00
71994;DHT22;59861;50.268;8.648;2023-01-08T15:21:57;18.20;66.50
71994;DHT22;59861;50.268;8.648;2023-01-08T15:24:28;18.20;66.40
71994;DHT22;59861;50.268;8.648;2023-01-08T15:26:56;18.20;66.40
71994;DHT22;59861;50.268;8.648;2023-01-08T15:29:27;18.20;66.70
71994;DHT22;59861;50.268;8.648;2023-01-08T15:31:55;18.20;66.80
71994;DHT22;59861;50.268;8.648;2023-01-08T15:34:22;18.30;67.20
71994;DHT22;59861;50.268;8.648;2023-01-08T15:36:49;18.30;67.20
71994;DHT22;59861;50.268;8.648;2023-01-08T15:39:16;18.30;68.50
71994;DHT22;59861;50.268;8.648;2023-01-08T15:41:43;18.30;67.50
71994;DHT22;59861;50.268;8.648;2023-01-08T15:44:28;18.20;67.30
71994;DHT22;59861;50.268;8.648;2023-01-08T15:46:54;18.10;66.90
71994;DHT22;59861;50.268;8.648;2023-01-08T15:49:21;18.10;67.00
71994;DHT22;59861;50.268;8.648;2023-01-08T15:51:48;18.10;66.50
71994;DHT22;59861;50.268;8.648;2023-01-08T15:54:16;18.10;66.50
71994;DHT22;59861;50.268;8.648;2023-01-08T15:56:45;18.00;64.10
71994;DHT22;59861;50.268;8.648;2023-01-08T15:59:11;17.80;63.10
71994;DHT22;59861;50.268;8.648;2023-01-08T16:01:38;17.80;63.70
71994;DHT22;59861;50.268;8.648;2023-01-08T16:04:05;17.90;64.20
71994;DHT22;59861;50.268;8.648;2023-01-08T16:06:32;17.90;64.30
71994;DHT22;59861;50.268;8.648;2023-01-08T16:09:00;18.00;64.40
71994;DHT22;59861;50.268;8.648;2023-01-08T16:11:28;18.00;64.40
71994;DHT22;59861;50.268;8.648;2023-01-08T16:13:54;18.00;64.50
71994;DHT22;59861;50.268;8.648;2023-01-08T16:16:21;18.00;64.70
71994;DHT22;59861;50.268;8.648;2023-01-08T16:18:48;18.00;65.00
71994;DHT22;59861;50.268;8.648;2023-01-08T16:21:15;18.00;65.10
71994;DHT22;59861;50.268;8.648;2023-01-08T16:23:42;18.00;65.10
71994;DHT22;59861;50.268;8.648;2023-01-08T16:26:09;18.00;65.20
71994;DHT22;59861;50.268;8.648;2023-01-08T16:28:36;18.00;66.20
71994;DHT22;59861;50.268;8.648;2023-01-08T16:31:04;18.10;66.10
71994;DHT22;59861;50.268;8.648;2023-01-08T16:33:31;18.00;65.10
71994;DHT22;59861;50.268;8.648;2023-01-08T16:35:58;18.00;65.10